sensor_id;sensor_type;location;lat;lon;timestamp;pressure;altitude;pressure_sealevel;temperature;humidity
57668;BME280;43499;52.366;12.912;2022-09-30T00:00:13;100501.34;;;7.08;91.96
57668;BME280;43499;52.366;12.912;2022-09-30T00:01:14;100500.94;;;7.04;91.77
57668;BME280;43499;52.366;12.912;2022-09-30T00:02:15;100507.44;;;6.99;92.27
57668;BME280;43499;52.366;12.912;2022-09-30T00:03:16;100506.38;;;6.97;91.90
57668;BME280;43499;52.366;12.912;2022-09-30T00:04:20;100506.88;;;6.92;92.07
57668;BME280;43499;52.366;12.912;2022-09-30T00:05:21;100505.53;;;6.87;92.03
57668;BME280;43499;52.366;12.912;2022-09-30T00:06:24;100509.06;;;6.88;91.89
57668;BME280;43499;52.366;12.912;2022-09-30T00:07:26;100509.47;;;6.92;91.68
57668;BME280;43499;52.366;12.912;2022-09-30T00:08:27;100511.03;;;6.90;91.60
57668;BME280;43499;52.366;12.912;2022-09-30T00:09:28;100503.72;;;6.86;91.50
57668;BME280;43499;52.366;12.912;2022-09-30T00:10:29;100510.78;;;6.87;91.05
57668;BME280;43499;52.366;12.912;2022-09-30T00:11:33;100503.06;;;6.89;90.60
57668;BME280;43499;52.366;12.912;2022-09-30T00:12:34;100504.00;;;6.89;90.17
57668;BME280;43499;52.366;12.912;2022-09-30T00:13:37;100506.81;;;6.82;90.76
57668;BME280;43499;52.366;12.912;2022-09-30T00:14:38;100506.31;;;6.86;90.32
57668;BME280;43499;52.366;12.912;2022-09-30T00:15:39;100511.38;;;6.85;90.05
57668;BME280;43499;52.366;12.912;2022-09-30T00:16:41;100505.13;;;6.83;90.82
57668;BME280;43499;52.366;12.912;2022-09-30T00:17:42;100504.78;;;6.88;90.45
57668;BME280;43499;52.366;12.912;2022-09-30T00:18:44;100510.00;;;6.88;90.26
57668;BME280;43499;52.366;12.912;2022-09-30T00:19:45;100509.56;;;6.84;90.24
57668;BME280;43499;52.366;12.912;2022-09-30T00:20:47;100509.75;;;6.76;90.66
57668;BME280;43499;52.366;12.912;2022-09-30T00:21:48;100510.53;;;6.75;90.86
57668;BME280;43499;52.366;12.912;2022-09-30T00:22:49;100512.38;;;6.76;90.58
57668;BME280;43499;52.366;12.912;2022-09-30T00:23:50;100507.94;;;6.75;90.95
57668;BME280;43499;52.366;12.912;2022-09-30T00:24:51;100509.75;;;6.76;90.71
57668;BME280;43499;52.366;12.912;2022-09-30T00:25:59;100513.56;;;6.80;90.53
57668;BME280;43499;52.366;12.912;2022-09-30T00:27:01;100509.75;;;6.76;91.42
57668;BME280;43499;52.366;12.912;2022-09-30T00:28:02;100506.16;;;6.85;91.99
57668;BME280;43499;52.366;12.912;2022-09-30T00:29:03;100507.28;;;6.97;91.71
57668;BME280;43499;52.366;12.912;2022-09-30T00:30:05;100511.03;;;6.90;90.78
57668;BME280;43499;52.366;12.912;2022-09-30T00:31:11;100505.38;;;6.86;90.86
57668;BME280;43499;52.366;12.912;2022-09-30T00:32:13;100508.63;;;6.83;92.16
57668;BME280;43499;52.366;12.912;2022-09-30T00:33:14;100506.16;;;6.85;93.15
57668;BME280;43499;52.366;12.912;2022-09-30T00:34:15;100505.19;;;6.93;92.28
57668;BME280;43499;52.366;12.912;2022-09-30T00:35:17;100500.09;;;6.75;91.61
57668;BME280;43499;52.366;12.912;2022-09-30T00:36:18;100509.28;;;6.81;93.96
57668;BME280;43499;52.366;12.912;2022-09-30T00:37:19;100506.66;;;6.81;92.25
57668;BME280;43499;52.366;12.912;2022-09-30T00:38:20;100511.91;;;6.81;92.11
57668;BME280;43499;52.366;12.912;2022-09-30T00:39:24;100506.25;;;6.76;92.68
57668;BME280;43499;52.366;12.912;2022-09-30T00:40:26;100505.31;;;6.75;92.44
57668;BME280;43499;52.366;12.912;2022-09-30T00:41:27;100511.53;;;6.67;92.68
57668;BME280;43499;52.366;12.912;2022-09-30T00:42:28;100512.91;;;6.72;92.87
57668;BME280;43499;52.366;12.912;2022-09-30T00:43:44;100515.22;;;6.69;93.97
57668;BME280;43499;52.366;12.912;2022-09-30T00:45:04;100512.72;;;6.71;94.22
57668;BME280;43499;52.366;12.912;2022-09-30T00:46:17;100508.69;;;6.74;93.49
57668;BME280;43499;52.366;12.912;2022-09-30T00:47:32;100515.34;;;6.71;95.30
57668;BME280;43499;52.366;12.912;2022-09-30T00:48:37;100518.31;;;6.65;94.47
57668;BME280;43499;52.366;12.912;2022-09-30T00:49:39;100525.84;;;6.62;96.17
57668;BME280;43499;52.366;12.912;2022-09-30T00:50:42;100518.47;;;6.67;97.68
57668;BME280;43499;52.366;12.912;2022-09-30T00:51:52;100521.50;;;6.71;95.61
57668;BME280;43499;52.366;12.912;2022-09-30T00:53:02;100517.66;;;6.68;95.48
57668;BME280;43499;52.366;12.912;2022-09-30T00:54:14;100520.78;;;6.63;96.12
57668;BME280;43499;52.366;12.912;2022-09-30T00:55:26;100523.00;;;6.50;95.20
57668;BME280;43499;52.366;12.912;2022-09-30T00:56:37;100522.28;;;6.42;95.38
57668;BME280;43499;52.366;12.912;2022-09-30T00:57:39;100520.09;;;6.47;97.36
57668;BME280;43499;52.366;12.912;2022-09-30T00:59:49;100529.44;;;6.54;95.47
57668;BME280;43499;52.366;12.912;2022-09-30T01:00:51;100523.06;;;6.41;96.12
57668;BME280;43499;52.366;12.912;2022-09-30T01:01:53;100524.25;;;6.45;96.28
57668;BME280;43499;52.366;12.912;2022-09-30T01:02:54;100531.75;;;6.51;95.38
57668;BME280;43499;52.366;12.912;2022-09-30T01:04:03;100527.94;;;6.47;95.03
57668;BME280;43499;52.366;12.912;2022-09-30T01:05:06;100531.91;;;6.52;94.01
57668;BME280;43499;52.366;12.912;2022-09-30T01:06:09;100534.09;;;6.47;93.76
57668;BME280;43499;52.366;12.912;2022-09-30T01:07:10;100530.47;;;6.37;94.10
57668;BME280;43499;52.366;12.912;2022-09-30T01:08:12;100534.00;;;6.37;93.83
57668;BME280;43499;52.366;12.912;2022-09-30T01:09:13;100530.97;;;6.32;93.92
57668;BME280;43499;52.366;12.912;2022-09-30T01:10:14;100524.50;;;6.29;93.83
57668;BME280;43499;52.366;12.912;2022-09-30T01:11:16;100528.22;;;6.22;94.38
57668;BME280;43499;52.366;12.912;2022-09-30T01:12:20;100534.53;;;6.15;94.54
57668;BME280;43499;52.366;12.912;2022-09-30T01:13:24;100533.91;;;6.27;95.43
57668;BME280;43499;52.366;12.912;2022-09-30T01:14:27;100533.91;;;6.27;94.61
57668;BME280;43499;52.366;12.912;2022-09-30T01:15:38;100534.03;;;6.28;95.22
57668;BME280;43499;52.366;12.912;2022-09-30T01:18:15;100534.72;;;6.17;94.84
57668;BME280;43499;52.366;12.912;2022-09-30T01:19:28;100550.41;;;6.08;94.74
57668;BME280;43499;52.366;12.912;2022-09-30T01:22:01;100550.41;;;6.08;96.34
57668;BME280;43499;52.366;12.912;2022-09-30T01:23:25;100549.78;;;6.11;96.54
57668;BME280;43499;52.366;12.912;2022-09-30T01:24:46;100551.03;;;6.06;97.28
57668;BME280;43499;52.366;12.912;2022-09-30T01:26:14;100547.94;;;6.10;96.99
57668;BME280;43499;52.366;12.912;2022-09-30T01:27:40;100552.03;;;6.16;98.65
57668;BME280;43499;52.366;12.912;2022-09-30T01:29:04;100550.38;;;6.17;98.92
57668;BME280;43499;52.366;12.912;2022-09-30T01:30:18;100549.59;;;6.18;98.50
57668;BME280;43499;52.366;12.912;2022-09-30T01:31:56;100551.16;;;6.16;99.74
57668;BME280;43499;52.366;12.912;2022-09-30T01:35:50;100548.88;;;6.01;97.60
57668;BME280;43499;52.366;12.912;2022-09-30T01:38:29;100540.28;;;5.94;98.07
57668;BME280;43499;52.366;12.912;2022-09-30T01:41:00;100544.00;;;5.87;96.96
57668;BME280;43499;52.366;12.912;2022-09-30T01:42:37;100535.72;;;5.82;96.41
57668;BME280;43499;52.366;12.912;2022-09-30T01:45:12;100535.25;;;5.86;97.98
57668;BME280;43499;52.366;12.912;2022-09-30T01:46:45;100536.03;;;5.85;99.26
57668;BME280;43499;52.366;12.912;2022-09-30T01:47:51;100540.00;;;5.91;98.78
57668;BME280;43499;52.366;12.912;2022-09-30T01:49:06;100537.25;;;5.89;98.37
57668;BME280;43499;52.366;12.912;2022-09-30T01:50:20;100542.50;;;5.80;97.51
57668;BME280;43499;52.366;12.912;2022-09-30T01:51:31;100534.50;;;5.79;97.49
57668;BME280;43499;52.366;12.912;2022-09-30T01:53:02;100534.06;;;5.83;96.16
57668;BME280;43499;52.366;12.912;2022-09-30T01:54:16;100534.38;;;5.77;96.41
57668;BME280;43499;52.366;12.912;2022-09-30T01:55:35;100535.59;;;5.81;98.82
57668;BME280;43499;52.366;12.912;2022-09-30T01:56:41;100533.72;;;5.89;98.46
57668;BME280;43499;52.366;12.912;2022-09-30T01:57:54;100536.03;;;5.85;96.61
57668;BME280;43499;52.366;12.912;2022-09-30T01:59:02;100532.66;;;5.78;96.44
57668;BME280;43499;52.366;12.912;2022-09-30T02:00:08;100538.53;;;5.66;96.15
57668;BME280;43499;52.366;12.912;2022-09-30T02:01:18;100528.28;;;5.59;96.88
57668;BME280;43499;52.366;12.912;2022-09-30T02:02:25;100536.41;;;5.62;97.15
57668;BME280;43499;52.366;12.912;2022-09-30T02:03:38;100530.13;;;5.60;98.11
57668;BME280;43499;52.366;12.912;2022-09-30T02:04:51;100531.22;;;5.62;96.78
57668;BME280;43499;52.366;12.912;2022-09-30T02:05:57;100533.31;;;5.66;97.55
57668;BME280;43499;52.366;12.912;2022-09-30T02:07:08;100533.63;;;5.69;96.62
57668;BME280;43499;52.366;12.912;2022-09-30T02:08:23;100534.38;;;5.77;97.25
57668;BME280;43499;52.366;12.912;2022-09-30T02:09:37;100536.63;;;5.92;97.73
57668;BME280;43499;52.366;12.912;2022-09-30T02:10:51;100540.94;;;6.00;97.72
57668;BME280;43499;52.366;12.912;2022-09-30T02:11:58;100538.47;;;6.01;98.14
57668;BME280;43499;52.366;12.912;2022-09-30T02:13:08;100541.38;;;6.05;100.00
57668;BME280;43499;52.366;12.912;2022-09-30T02:14:18;100542.28;;;5.96;98.70
57668;BME280;43499;52.366;12.912;2022-09-30T02:15:23;100543.22;;;5.88;100.00
57668;BME280;43499;52.366;12.912;2022-09-30T02:16:36;100544.19;;;5.80;100.00
57668;BME280;43499;52.366;12.912;2022-09-30T02:17:47;100537.75;;;5.76;100.00
57668;BME280;43499;52.366;12.912;2022-09-30T02:18:57;100544.50;;;5.74;100.00
57668;BME280;43499;52.366;12.912;2022-09-30T02:20:06;100543.88;;;5.77;100.00
57668;BME280;43499;52.366;12.912;2022-09-30T02:21:12;100542.22;;;5.68;100.00
57668;BME280;43499;52.366;12.912;2022-09-30T02:22:18;100545.47;;;5.66;100.00
57668;BME280;43499;52.366;12.912;2022-09-30T02:23:24;100547.44;;;5.68;100.00
57668;BME280;43499;52.366;12.912;2022-09-30T02:24:30;100543.75;;;5.66;100.00
57668;BME280;43499;52.366;12.912;2022-09-30T02:25:50;100548.06;;;5.66;100.00
57668;BME280;43499;52.366;12.912;2022-09-30T02:26:56;100543.75;;;5.66;100.00
57668;BME280;43499;52.366;12.912;2022-09-30T02:28:02;100548.38;;;5.69;100.00
57668;BME280;43499;52.366;12.912;2022-09-30T02:29:15;100548.06;;;5.66;100.00
57668;BME280;43499;52.366;12.912;2022-09-30T02:30:17;100547.13;;;5.65;100.00
57668;BME280;43499;52.366;12.912;2022-09-30T02:31:21;100548.53;;;5.62;100.00
57668;BME280;43499;52.366;12.912;2022-09-30T02:32:28;100548.69;;;5.63;100.00
57668;BME280;43499;52.366;12.912;2022-09-30T02:33:34;100550.03;;;5.68;100.00
57668;BME280;43499;52.366;12.912;2022-09-30T02:34:42;100554.19;;;5.66;100.00
57668;BME280;43499;52.366;12.912;2022-09-30T02:35:49;100554.81;;;5.64;100.00
57668;BME280;43499;52.366;12.912;2022-09-30T02:37:00;100554.03;;;5.65;100.00
57668;BME280;43499;52.366;12.912;2022-09-30T02:38:14;100552.19;;;5.64;100.00
57668;BME280;43499;52.366;12.912;2022-09-30T02:39:24;100557.09;;;5.61;100.00
57668;BME280;43499;52.366;12.912;2022-09-30T02:40:40;100557.72;;;5.58;100.00
57668;BME280;43499;52.366;12.912;2022-09-30T02:41:46;100560.22;;;5.56;100.00
57668;BME280;43499;52.366;12.912;2022-09-30T02:42:49;100555.44;;;5.52;100.00
57668;BME280;43499;52.366;12.912;2022-09-30T02:43:52;100562.06;;;5.49;100.00
57668;BME280;43499;52.366;12.912;2022-09-30T02:45:00;100564.66;;;5.58;100.00
57668;BME280;43499;52.366;12.912;2022-09-30T02:48:55;100564.81;;;5.41;100.00
57668;BME280;43499;52.366;12.912;2022-09-30T02:50:15;100557.16;;;5.43;100.00
57668;BME280;43499;52.366;12.912;2022-09-30T02:51:40;100560.97;;;5.47;100.00
57668;BME280;43499;52.366;12.912;2022-09-30T02:54:33;100560.97;;;5.47;100.00
57668;BME280;43499;52.366;12.912;2022-09-30T02:57:35;100562.81;;;5.56;100.00
57668;BME280;43499;52.366;12.912;2022-09-30T02:58:40;100562.81;;;5.56;100.00
57668;BME280;43499;52.366;12.912;2022-09-30T02:59:45;100559.13;;;5.63;100.00
57668;BME280;43499;52.366;12.912;2022-09-30T03:00:49;100562.63;;;5.64;100.00
57668;BME280;43499;52.366;12.912;2022-09-30T03:01:50;100559.88;;;5.62;100.00
57668;BME280;43499;52.366;12.912;2022-09-30T03:02:58;100570.91;;;5.68;100.00
57668;BME280;43499;52.366;12.912;2022-09-30T03:04:04;100566.16;;;5.64;100.00
57668;BME280;43499;52.366;12.912;2022-09-30T03:05:08;100571.97;;;5.70;100.00
57668;BME280;43499;52.366;12.912;2022-09-30T03:06:10;100568.75;;;5.64;100.00
57668;BME280;43499;52.366;12.912;2022-09-30T03:07:12;100561.88;;;5.65;100.00
57668;BME280;43499;52.366;12.912;2022-09-30T03:08:13;100569.69;;;5.65;100.00
57668;BME280;43499;52.366;12.912;2022-09-30T03:09:14;100566.63;;;5.60;100.00
57668;BME280;43499;52.366;12.912;2022-09-30T03:10:16;100564.16;;;5.62;100.00
57668;BME280;43499;52.366;12.912;2022-09-30T03:11:20;100570.16;;;5.61;100.00
57668;BME280;43499;52.366;12.912;2022-09-30T03:12:36;100565.09;;;5.53;100.00
57668;BME280;43499;52.366;12.912;2022-09-30T03:15:34;100577.97;;;5.61;100.00
57668;BME280;43499;52.366;12.912;2022-09-30T03:17:10;100573.84;;;5.54;100.00
57668;BME280;43499;52.366;12.912;2022-09-30T03:18:30;100574.78;;;5.54;100.00
57668;BME280;43499;52.366;12.912;2022-09-30T03:21:27;100574.91;;;5.47;100.00
57668;BME280;43499;52.366;12.912;2022-09-30T03:24:08;100582.00;;;5.39;100.00
57668;BME280;43499;52.366;12.912;2022-09-30T03:25:22;100577.69;;;5.40;100.00
57668;BME280;43499;52.366;12.912;2022-09-30T03:26:37;100580.44;;;5.41;100.00
57668;BME280;43499;52.366;12.912;2022-09-30T03:27:50;100579.22;;;5.38;100.00
57668;BME280;43499;52.366;12.912;2022-09-30T03:29:53;100590.44;;;5.28;100.00
57668;BME280;43499;52.366;12.912;2022-09-30T03:30:26;100592.28;;;5.29;100.00
57668;BME280;43499;52.366;12.912;2022-09-30T03:33:03;100588.75;;;5.37;100.00
57668;BME280;43499;52.366;12.912;2022-09-30T03:34:16;100589.66;;;5.38;100.00
57668;BME280;43499;52.366;12.912;2022-09-30T03:36:02;100593.66;;;5.34;100.00
57668;BME280;43499;52.366;12.912;2022-09-30T03:37:10;100587.66;;;5.35;100.00
57668;BME280;43499;52.366;12.912;2022-09-30T03:38:35;100594.56;;;5.26;100.00
57668;BME280;43499;52.366;12.912;2022-09-30T03:40:00;100590.13;;;5.34;100.00
57668;BME280;43499;52.366;12.912;2022-09-30T03:41:32;100585.38;;;5.30;100.00
57668;BME280;43499;52.366;12.912;2022-09-30T03:42:42;100591.81;;;5.33;100.00
57668;BME280;43499;52.366;12.912;2022-09-30T03:43:50;100593.66;;;5.34;100.00
57668;BME280;43499;52.366;12.912;2022-09-30T03:46:26;100590.59;;;5.30;100.00
57668;BME280;43499;52.366;12.912;2022-09-30T03:47:34;100592.88;;;5.27;100.00
57668;BME280;43499;52.366;12.912;2022-09-30T03:48:38;100596.41;;;5.18;100.00
57668;BME280;43499;52.366;12.912;2022-09-30T03:49:45;100595.00;;;5.13;100.00
57668;BME280;43499;52.366;12.912;2022-09-30T03:50:48;100590.56;;;5.12;100.00
57668;BME280;43499;52.366;12.912;2022-09-30T03:51:49;100598.56;;;5.14;100.00
57668;BME280;43499;52.366;12.912;2022-09-30T03:52:51;100599.00;;;5.09;100.00
57668;BME280;43499;52.366;12.912;2022-09-30T03:53:52;100600.09;;;5.12;100.00
57668;BME280;43499;52.366;12.912;2022-09-30T03:54:58;100604.06;;;5.08;100.00
57668;BME280;43499;52.366;12.912;2022-09-30T03:56:00;100605.44;;;5.13;100.00
57668;BME280;43499;52.366;12.912;2022-09-30T03:57:01;100611.25;;;5.10;100.00
57668;BME280;43499;52.366;12.912;2022-09-30T03:58:04;100605.16;;;5.10;100.00
57668;BME280;43499;52.366;12.912;2022-09-30T03:59:24;100610.19;;;5.08;100.00
57668;BME280;43499;52.366;12.912;2022-09-30T04:00:25;100608.81;;;5.03;100.00
57668;BME280;43499;52.366;12.912;2022-09-30T04:01:26;100605.56;;;4.97;100.00
57668;BME280;43499;52.366;12.912;2022-09-30T04:02:27;100613.38;;;4.97;100.00
57668;BME280;43499;52.366;12.912;2022-09-30T04:03:29;100612.94;;;4.92;100.00
57668;BME280;43499;52.366;12.912;2022-09-30T04:04:30;100611.84;;;4.82;100.00
57668;BME280;43499;52.366;12.912;2022-09-30T04:05:31;100616.31;;;4.83;100.00
57668;BME280;43499;52.366;12.912;2022-09-30T04:06:32;100622.09;;;4.71;100.00
57668;BME280;43499;52.366;12.912;2022-09-30T04:07:33;100616.88;;;4.80;100.00
57668;BME280;43499;52.366;12.912;2022-09-30T04:08:35;100610.00;;;4.89;100.00
57668;BME280;43499;52.366;12.912;2022-09-30T04:09:37;100612.03;;;4.92;100.00
57668;BME280;43499;52.366;12.912;2022-09-30T04:10:39;100615.88;;;5.04;100.00
57668;BME280;43499;52.366;12.912;2022-09-30T04:11:41;100611.44;;;5.03;100.00
57668;BME280;43499;52.366;12.912;2022-09-30T04:12:42;100614.63;;;5.01;100.00
57668;BME280;43499;52.366;12.912;2022-09-30T04:13:43;100611.88;;;4.99;100.00
57668;BME280;43499;52.366;12.912;2022-09-30T04:14:44;100607.44;;;5.07;100.00
57668;BME280;43499;52.366;12.912;2022-09-30T04:15:52;100612.63;;;4.98;100.00
57668;BME280;43499;52.366;12.912;2022-09-30T04:16:53;100615.72;;;4.94;100.00
57668;BME280;43499;52.366;12.912;2022-09-30T04:17:54;100619.66;;;4.90;100.00
57668;BME280;43499;52.366;12.912;2022-09-30T04:18:55;100617.69;;;4.97;100.00
57668;BME280;43499;52.366;12.912;2022-09-30T04:19:57;100621.22;;;4.97;100.00
57668;BME280;43499;52.366;12.912;2022-09-30T04:20:58;100613.22;;;4.87;100.00
57668;BME280;43499;52.366;12.912;2022-09-30T04:21:59;100617.81;;;4.89;100.00
57668;BME280;43499;52.366;12.912;2022-09-30T04:23:00;100621.81;;;4.94;100.00
57668;BME280;43499;52.366;12.912;2022-09-30T04:24:01;100622.28;;;4.82;100.00
57668;BME280;43499;52.366;12.912;2022-09-30T04:25:03;100625.94;;;4.84;100.00
57668;BME280;43499;52.366;12.912;2022-09-30T04:26:06;100622.75;;;4.86;100.00
57668;BME280;43499;52.366;12.912;2022-09-30T04:27:07;100629.47;;;4.84;100.00
57668;BME280;43499;52.366;12.912;2022-09-30T04:28:08;100635.91;;;4.88;100.00
57668;BME280;43499;52.366;12.912;2022-09-30T04:29:09;100634.09;;;4.96;100.00
57668;BME280;43499;52.366;12.912;2022-09-30T04:30:10;100626.28;;;4.96;100.00
57668;BME280;43499;52.366;12.912;2022-09-30T04:31:12;100635.59;;;4.93;100.00
57668;BME280;43499;52.366;12.912;2022-09-30T04:32:14;100637.31;;;4.93;100.00
57668;BME280;43499;52.366;12.912;2022-09-30T04:33:15;100632.84;;;4.92;100.00
57668;BME280;43499;52.366;12.912;2022-09-30T04:34:16;100637.44;;;4.94;100.00
57668;BME280;43499;52.366;12.912;2022-09-30T04:35:22;100647.88;;;4.94;100.00
57668;BME280;43499;52.366;12.912;2022-09-30T04:36:27;100648.94;;;4.97;100.00
57668;BME280;43499;52.366;12.912;2022-09-30T04:37:29;100635.28;;;4.90;100.00
57668;BME280;43499;52.366;12.912;2022-09-30T04:38:30;100646.66;;;5.00;100.00
57668;BME280;43499;52.366;12.912;2022-09-30T04:39:31;100653.22;;;4.87;100.00
57668;BME280;43499;52.366;12.912;2022-09-30T04:40:36;100651.69;;;4.98;100.00
57668;BME280;43499;52.366;12.912;2022-09-30T04:41:38;100651.25;;;4.93;100.00
57668;BME280;43499;52.366;12.912;2022-09-30T04:42:40;100657.38;;;4.94;100.00
57668;BME280;43499;52.366;12.912;2022-09-30T04:43:43;100657.06;;;4.91;100.00
57668;BME280;43499;52.366;12.912;2022-09-30T04:44:47;100660.44;;;4.90;100.00
57668;BME280;43499;52.366;12.912;2022-09-30T04:45:49;100664.69;;;4.89;100.00
57668;BME280;43499;52.366;12.912;2022-09-30T04:46:52;100658.72;;;4.82;100.00
57668;BME280;43499;52.366;12.912;2022-09-30T04:47:54;100657.97;;;4.83;100.00
57668;BME280;43499;52.366;12.912;2022-09-30T04:48:55;100658.88;;;4.83;100.00
57668;BME280;43499;52.366;12.912;2022-09-30T04:49:56;100667.78;;;4.85;100.00
57668;BME280;43499;52.366;12.912;2022-09-30T04:50:57;100674.66;;;4.85;100.00
57668;BME280;43499;52.366;12.912;2022-09-30T04:52:01;100660.25;;;4.79;100.00
57668;BME280;43499;52.366;12.912;2022-09-30T04:53:02;100669.53;;;4.69;100.00
57668;BME280;43499;52.366;12.912;2022-09-30T04:54:03;100668.47;;;4.67;100.00
57668;BME280;43499;52.366;12.912;2022-09-30T04:55:05;100674.13;;;4.62;100.00
57668;BME280;43499;52.366;12.912;2022-09-30T04:56:07;100677.16;;;4.58;100.00
57668;BME280;43499;52.366;12.912;2022-09-30T04:57:08;100681.00;;;4.53;100.00
57668;BME280;43499;52.366;12.912;2022-09-30T04:58:11;100683.75;;;4.55;100.00
57668;BME280;43499;52.366;12.912;2022-09-30T04:59:12;100679.72;;;4.41;100.00
57668;BME280;43499;52.366;12.912;2022-09-30T05:00:13;100684.09;;;4.33;100.00
57668;BME280;43499;52.366;12.912;2022-09-30T05:01:16;100685.78;;;4.32;100.00
57668;BME280;43499;52.366;12.912;2022-09-30T05:02:18;100685.41;;;4.21;100.00
57668;BME280;43499;52.366;12.912;2022-09-30T05:03:19;100690.19;;;4.25;100.00
57668;BME280;43499;52.366;12.912;2022-09-30T05:04:20;100689.53;;;4.19;100.00
57668;BME280;43499;52.366;12.912;2022-09-30T05:05:21;100685.25;;;4.19;100.00
57668;BME280;43499;52.366;12.912;2022-09-30T05:06:22;100686.31;;;4.21;100.00
57668;BME280;43499;52.366;12.912;2022-09-30T05:07:23;100686.38;;;4.30;100.00
57668;BME280;43499;52.366;12.912;2022-09-30T05:08:24;100687.88;;;4.28;100.00
57668;BME280;43499;52.366;12.912;2022-09-30T05:09:25;100691.16;;;4.34;100.00
57668;BME280;43499;52.366;12.912;2022-09-30T05:10:27;100691.44;;;4.37;100.00
57668;BME280;43499;52.366;12.912;2022-09-30T05:11:28;100697.59;;;4.38;100.00
57668;BME280;43499;52.366;12.912;2022-09-30T05:12:29;100697.66;;;4.46;100.00
57668;BME280;43499;52.366;12.912;2022-09-30T05:13:33;100695.81;;;4.45;100.00
57668;BME280;43499;52.366;12.912;2022-09-30T05:14:35;100702.94;;;4.39;100.00
57668;BME280;43499;52.366;12.912;2022-09-30T05:15:36;100708.75;;;4.37;100.00
57668;BME280;43499;52.366;12.912;2022-09-30T05:16:37;100711.97;;;4.34;100.00
57668;BME280;43499;52.366;12.912;2022-09-30T05:17:38;100703.97;;;4.24;100.00
57668;BME280;43499;52.366;12.912;2022-09-30T05:18:50;100709.38;;;4.34;100.00
57668;BME280;43499;52.366;12.912;2022-09-30T05:20:17;100713.91;;;4.28;100.00
57668;BME280;43499;52.366;12.912;2022-09-30T05:21:21;100700.91;;;4.28;100.00
57668;BME280;43499;52.366;12.912;2022-09-30T05:22:25;100710.41;;;4.27;100.00
57668;BME280;43499;52.366;12.912;2022-09-30T05:23:35;100713.44;;;4.23;100.00
57668;BME280;43499;52.366;12.912;2022-09-30T05:24:45;100705.47;;;4.22;100.00
57668;BME280;43499;52.366;12.912;2022-09-30T05:25:52;100706.00;;;4.10;100.00
57668;BME280;43499;52.366;12.912;2022-09-30T05:26:54;100712.19;;;4.20;100.00
57668;BME280;43499;52.366;12.912;2022-09-30T05:27:55;100707.63;;;4.26;100.00
57668;BME280;43499;52.366;12.912;2022-09-30T05:28:56;100711.03;;;4.33;100.00
57668;BME280;43499;52.366;12.912;2022-09-30T05:29:57;100707.69;;;4.35;100.00
57668;BME280;43499;52.366;12.912;2022-09-30T05:31:01;100711.03;;;4.33;100.00
57668;BME280;43499;52.366;12.912;2022-09-30T05:32:03;100705.06;;;4.35;100.00
57668;BME280;43499;52.366;12.912;2022-09-30T05:33:04;100707.19;;;4.30;100.00
57668;BME280;43499;52.366;12.912;2022-09-30T05:34:05;100707.84;;;4.36;100.00
57668;BME280;43499;52.366;12.912;2022-09-30T05:35:06;100704.47;;;4.37;100.00
57668;BME280;43499;52.366;12.912;2022-09-30T05:36:11;100704.31;;;4.36;100.00
57668;BME280;43499;52.366;12.912;2022-09-30T05:37:13;100705.34;;;4.29;100.00
57668;BME280;43499;52.366;12.912;2022-09-30T05:38:14;100709.78;;;4.30;100.00
57668;BME280;43499;52.366;12.912;2022-09-30T05:39:15;100704.38;;;4.44;100.00
57668;BME280;43499;52.366;12.912;2022-09-30T05:40:16;100711.75;;;4.24;100.00
57668;BME280;43499;52.366;12.912;2022-09-30T05:41:17;100711.22;;;4.35;100.00
57668;BME280;43499;52.366;12.912;2022-09-30T05:42:21;100709.63;;;4.53;100.00
57668;BME280;43499;52.366;12.912;2022-09-30T05:43:23;100712.94;;;4.77;100.00
57668;BME280;43499;52.366;12.912;2022-09-30T05:44:24;100714.25;;;5.07;99.25
57668;BME280;43499;52.366;12.912;2022-09-30T05:45:25;100709.59;;;5.55;96.82
57668;BME280;43499;52.366;12.912;2022-09-30T05:46:27;100716.94;;;5.95;94.81
57668;BME280;43499;52.366;12.912;2022-09-30T05:47:28;100715.22;;;6.30;91.99
57668;BME280;43499;52.366;12.912;2022-09-30T05:48:29;100707.78;;;6.53;90.97
57668;BME280;43499;52.366;12.912;2022-09-30T05:49:30;100709.63;;;6.54;90.19
57668;BME280;43499;52.366;12.912;2022-09-30T05:50:34;100708.81;;;6.63;89.59
57668;BME280;43499;52.366;12.912;2022-09-30T05:51:35;100713.78;;;6.52;89.97
57668;BME280;43499;52.366;12.912;2022-09-30T05:52:36;100724.28;;;6.34;91.02
57668;BME280;43499;52.366;12.912;2022-09-30T05:53:37;100718.75;;;5.96;93.08
57668;BME280;43499;52.366;12.912;2022-09-30T05:54:38;100717.56;;;5.92;93.14
57668;BME280;43499;52.366;12.912;2022-09-30T05:55:44;100717.56;;;5.75;93.74
57668;BME280;43499;52.366;12.912;2022-09-30T05:56:46;100726.16;;;5.74;94.10
57668;BME280;43499;52.366;12.912;2022-09-30T05:57:48;100720.78;;;5.63;95.41
57668;BME280;43499;52.366;12.912;2022-09-30T05:58:50;100724.63;;;5.67;95.03
57668;BME280;43499;52.366;12.912;2022-09-30T05:59:51;100719.38;;;5.49;95.24
57668;BME280;43499;52.366;12.912;2022-09-30T06:00:52;100715.69;;;5.47;95.83
57668;BME280;43499;52.366;12.912;2022-09-30T06:01:53;100716.78;;;5.40;95.94
57668;BME280;43499;52.366;12.912;2022-09-30T06:02:55;100715.09;;;5.41;95.65
57668;BME280;43499;52.366;12.912;2022-09-30T06:03:56;100725.34;;;5.48;96.25
57668;BME280;43499;52.366;12.912;2022-09-30T06:04:57;100723.06;;;5.51;95.92
57668;BME280;43499;52.366;12.912;2022-09-30T06:05:58;100726.13;;;5.56;96.31
57668;BME280;43499;52.366;12.912;2022-09-30T06:06:59;100724.00;;;5.52;96.60
57668;BME280;43499;52.366;12.912;2022-09-30T06:08:00;100724.28;;;5.55;97.03